Time;durP1;ratioP1;P1;durP2;ratioP2;P2;SDS_P1;SDS_P2;PMS_P1;PMS_P2;Temp;Humidity;BMP_temperature;BMP_pressure;BME280_temperature;BME280_humidity;BME280_pressure;Samples;Min_cycle;Max_cycle;Signal;HPM_P1;HPM_P2
2023/06/06 00:02:21;;;;;;;6.60;5.37;;;20.20;1.00;;;;;;5032826;28;20205;-73
2023/06/06 00:04:49;;;;;;;6.60;5.50;;;20.20;1.00;;;;;;5051321;28;20177;-74
2023/06/06 00:07:16;;;;;;;6.53;4.87;;;20.20;1.00;;;;;;5033201;28;20423;-74
2023/06/06 00:09:42;;;;;;;7.83;5.57;;;20.10;1.00;;;;;;5051167;28;21055;-74
2023/06/06 00:12:12;;;;;;;7.07;5.50;;;20.20;1.00;;;;;;5051181;28;20510;-73
2023/06/06 00:14:40;;;;;;;6.77;5.00;;;20.20;1.00;;;;;;5050662;28;20603;-73
2023/06/06 00:17:06;;;;;;;8.93;5.00;;;20.20;1.00;;;;;;5051105;28;20466;-73
2023/06/06 00:19:32;;;;;;;8.10;5.63;;;20.20;1.00;;;;;;5050431;28;20484;-73
2023/06/06 00:21:58;;;;;;;7.43;5.70;;;20.20;1.00;;;;;;5051165;28;20522;-74
2023/06/06 00:24:24;;;;;;;5.90;4.97;;;20.10;1.00;;;;;;5050445;28;20625;-74
2023/06/06 00:26:50;;;;;;;8.37;5.80;;;20.10;1.00;;;;;;5050916;28;20180;-74
2023/06/06 00:29:15;;;;;;;8.63;5.50;;;20.10;1.00;;;;;;5049192;28;20513;-74
2023/06/06 00:31:41;;;;;;;7.80;5.20;;;20.10;1.00;;;;;;5050360;28;20277;-73
2023/06/06 00:34:06;;;;;;;7.87;5.10;;;20.00;1.00;;;;;;5050940;28;20236;-73
2023/06/06 00:36:32;;;;;;;11.73;4.87;;;20.00;1.00;;;;;;5050172;28;20201;-74
2023/06/06 00:38:57;;;;;;;8.10;5.60;;;19.90;1.00;;;;;;5050333;28;20282;-74
2023/06/06 00:41:23;;;;;;;7.10;5.07;;;19.90;1.00;;;;;;5050180;28;20748;-73
2023/06/06 00:43:48;;;;;;;6.93;5.70;;;19.90;1.00;;;;;;5050512;28;20203;-74
2023/06/06 00:46:16;;;;;;;6.83;5.57;;;19.90;1.00;;;;;;5050667;28;20191;-73
2023/06/06 00:48:42;;;;;;;8.50;5.60;;;19.80;1.00;;;;;;5050119;28;20710;-74
2023/06/06 00:51:08;;;;;;;7.20;5.03;;;19.80;1.00;;;;;;5050399;28;20514;-74
2023/06/06 00:53:35;;;;;;;6.80;5.03;;;19.70;1.00;;;;;;5049613;28;20246;-73
2023/06/06 00:56:01;;;;;;;7.53;5.90;;;19.70;1.00;;;;;;5048062;28;20466;-75
2023/06/06 00:58:28;;;;;;;7.43;5.50;;;19.70;1.00;;;;;;5047730;28;20435;-73
2023/06/06 01:00:55;;;;;;;6.97;5.40;;;19.70;1.00;;;;;;5050864;28;20778;-74
2023/06/06 01:03:22;;;;;;;6.97;5.43;;;19.70;1.00;;;;;;5049875;28;20945;-72
2023/06/06 01:05:48;;;;;;;6.70;4.97;;;19.60;1.00;;;;;;5049801;28;20427;-74
2023/06/06 01:08:13;;;;;;;6.07;5.10;;;19.60;1.00;;;;;;5049926;28;20446;-74
2023/06/06 01:10:40;;;;;;;6.90;5.47;;;19.60;1.00;;;;;;5049967;28;20298;-74
2023/06/06 01:13:20;;;;;;;6.67;5.20;;;19.50;1.00;;;;;;5032119;28;20307;-75
2023/06/06 01:15:52;;;;;;;6.50;5.33;;;19.40;1.00;;;;;;5050101;28;20458;-74
2023/06/06 01:18:19;;;;;;;6.60;5.20;;;19.40;1.00;;;;;;5049941;28;20418;-73
2023/06/06 01:20:45;;;;;;;9.53;5.13;;;19.40;1.00;;;;;;5049968;28;20426;-74
2023/06/06 01:23:11;;;;;;;6.73;5.27;;;19.30;1.00;;;;;;5049738;28;20440;-73
2023/06/06 01:25:40;;;;;;;7.13;5.27;;;19.30;1.00;;;;;;5049740;28;20473;-74
2023/06/06 01:28:13;;;;;;;6.30;5.23;;;19.30;1.00;;;;;;5049848;28;20512;-73
2023/06/06 01:30:40;;;;;;;8.00;5.50;;;19.20;1.00;;;;;;5049731;28;20419;-74
2023/06/06 01:33:17;;;;;;;5.90;5.00;;;19.20;1.00;;;;;;5049588;28;20443;-74
2023/06/06 01:36:07;;;;;;;6.10;4.97;;;19.10;1.00;;;;;;5049466;28;20454;-74
2023/06/06 01:38:43;;;;;;;7.60;4.87;;;19.00;1.00;;;;;;5049461;28;20925;-73
2023/06/06 01:41:10;;;;;;;8.37;5.03;;;19.30;1.00;;;;;;5049889;28;20989;-73
2023/06/06 01:43:39;;;;;;;9.03;5.60;;;19.00;1.00;;;;;;5049221;28;20486;-74
2023/06/06 01:46:06;;;;;;;9.90;5.27;;;19.00;1.00;;;;;;5049683;28;20805;-73
2023/06/06 01:48:32;;;;;;;6.87;5.40;;;19.00;1.00;;;;;;5049014;28;20532;-74
2023/06/06 01:50:58;;;;;;;7.83;5.60;;;19.00;1.00;;;;;;5049726;28;20941;-74
2023/06/06 01:53:23;;;;;;;6.90;5.47;;;18.90;1.00;;;;;;5048920;28;20451;-72
2023/06/06 01:55:50;;;;;;;6.80;5.27;;;18.90;1.00;;;;;;5048880;28;20215;-72
2023/06/06 01:58:17;;;;;;;6.23;5.00;;;18.90;1.00;;;;;;5045109;28;20173;-74
2023/06/06 02:00:43;;;;;;;7.53;4.90;;;18.80;1.00;;;;;;5046071;28;20510;-74
2023/06/06 02:03:08;;;;;;;7.83;5.13;;;18.90;1.00;;;;;;5049810;28;20518;-74
2023/06/06 02:05:34;;;;;;;6.80;5.47;;;18.90;1.00;;;;;;5049333;28;20183;-74
2023/06/06 02:07:59;;;;;;;7.07;5.50;;;19.00;1.00;;;;;;5049412;28;20247;-72
2023/06/06 02:10:25;;;;;;;7.57;5.03;;;19.10;1.00;;;;;;5049242;28;20264;-73
2023/06/06 02:12:50;;;;;;;6.17;5.10;;;19.00;1.00;;;;;;5049391;28;20617;-74
2023/06/06 02:15:16;;;;;;;7.17;4.87;;;19.00;1.00;;;;;;5049575;28;20227;-74
2023/06/06 02:17:42;;;;;;;7.33;5.03;;;19.00;1.00;;;;;;5049008;28;20196;-73
2023/06/06 02:20:09;;;;;;;7.90;4.63;;;19.00;1.00;;;;;;5053266;28;20430;-74
2023/06/06 02:22:35;;;;;;;7.07;4.97;;;19.00;1.00;;;;;;5050922;28;20204;-74
2023/06/06 02:25:03;;;;;;;6.20;4.73;;;19.00;1.00;;;;;;5053121;28;20438;-74
2023/06/06 02:27:30;;;;;;;6.13;4.90;;;19.00;1.00;;;;;;5052905;28;20219;-72
2023/06/06 02:29:56;;;;;;;5.50;4.80;;;19.00;1.00;;;;;;5053129;28;20419;-74
2023/06/06 02:32:23;;;;;;;8.97;5.07;;;19.00;1.00;;;;;;5053363;28;20451;-74
2023/06/06 02:34:50;;;;;;;6.53;4.80;;;19.00;1.00;;;;;;5053182;28;20502;-74
2023/06/06 02:37:15;;;;;;;9.43;4.97;;;19.00;1.00;;;;;;5053421;28;20459;-73
2023/06/06 02:39:41;;;;;;;7.70;5.00;;;19.00;1.00;;;;;;5052458;28;20434;-74
2023/06/06 02:42:07;;;;;;;8.03;4.90;;;19.00;1.00;;;;;;5052910;28;20200;-73
2023/06/06 02:44:33;;;;;;;5.83;4.77;;;19.00;1.00;;;;;;5052579;28;20326;-74
2023/06/06 02:46:58;;;;;;;5.80;4.70;;;19.00;1.00;;;;;;5052927;28;20895;-75
2023/06/06 02:49:24;;;;;;;5.57;4.50;;;19.00;1.00;;;;;;5052848;28;20608;-74
2023/06/06 02:51:49;;;;;;;5.70;4.40;;;19.00;1.00;;;;;;5052390;28;20197;-74
2023/06/06 02:54:15;;;;;;;7.80;4.93;;;19.10;1.00;;;;;;5052350;28;20224;-74
2023/06/06 02:56:41;;;;;;;7.63;5.43;;;19.10;1.00;;;;;;5028845;28;20252;-74
2023/06/06 02:59:09;;;;;;;6.07;4.97;;;19.10;1.00;;;;;;5052641;28;20200;-74
2023/06/06 03:01:36;;;;;;;5.70;4.80;;;19.10;1.00;;;;;;5052244;28;20587;-74
2023/06/06 03:04:02;;;;;;;6.37;4.50;;;19.10;1.00;;;;;;5052620;28;20443;-73
2023/06/06 03:06:28;;;;;;;6.97;5.10;;;19.10;1.00;;;;;;5052126;28;20909;-72
2023/06/06 03:08:57;;;;;;;6.57;5.10;;;19.20;1.00;;;;;;5052240;28;20426;-74
2023/06/06 03:11:26;;;;;;;6.47;4.40;;;19.20;1.00;;;;;;5052417;28;20559;-73
2023/06/06 03:13:51;;;;;;;5.93;4.77;;;19.20;1.00;;;;;;5044224;28;20471;-74
2023/06/06 03:16:17;;;;;;;7.20;4.90;;;19.20;1.00;;;;;;5052086;28;20545;-73
2023/06/06 03:18:46;;;;;;;6.83;4.80;;;19.20;1.00;;;;;;5051989;28;20651;-74
2023/06/06 03:21:13;;;;;;;6.90;4.87;;;19.20;1.00;;;;;;5052179;28;20684;-73
2023/06/06 03:23:38;;;;;;;5.87;5.17;;;19.20;1.00;;;;;;5051525;28;20443;-74
2023/06/06 03:26:04;;;;;;;9.30;5.27;;;19.20;1.00;;;;;;5052083;28;20875;-74
2023/06/06 03:28:31;;;;;;;6.50;4.70;;;19.20;1.00;;;;;;5051727;28;20189;-74
2023/06/06 03:30:57;;;;;;;6.00;4.80;;;19.20;1.00;;;;;;5051973;28;20201;-74
2023/06/06 03:33:22;;;;;;;6.30;4.90;;;19.20;1.00;;;;;;5051979;28;21004;-75
2023/06/06 03:35:48;;;;;;;11.10;4.60;;;19.20;1.00;;;;;;5051610;28;20205;-74
2023/06/06 03:38:14;;;;;;;6.03;4.70;;;19.20;1.00;;;;;;5051625;28;20192;-74
2023/06/06 03:40:39;;;;;;;7.87;5.00;;;19.10;1.00;;;;;;5051450;28;20307;-72
2023/06/06 03:43:05;;;;;;;5.93;4.73;;;19.10;1.00;;;;;;5051833;28;20619;-74
2023/06/06 03:45:31;;;;;;;6.00;4.77;;;19.00;1.00;;;;;;5051461;28;20181;-72
2023/06/06 03:47:57;;;;;;;7.73;5.07;;;18.90;1.00;;;;;;5051615;28;20426;-74
2023/06/06 03:50:22;;;;;;;7.83;5.70;;;18.90;1.00;;;;;;5052213;28;20213;-73
2023/06/06 03:52:48;;;;;;;7.20;5.30;;;18.80;1.00;;;;;;5033747;28;20208;-74
2023/06/06 03:55:13;;;;;;;7.70;4.67;;;18.80;1.00;;;;;;5051636;28;20192;-74
2023/06/06 03:57:40;;;;;;;12.40;5.17;;;18.70;1.00;;;;;;5050896;28;20204;-72
2023/06/06 04:00:11;;;;;;;9.50;5.40;;;18.60;1.00;;;;;;5052092;28;20196;-74
2023/06/06 04:02:46;;;;;;;6.60;5.20;;;18.60;1.00;;;;;;5051577;28;20435;-73
2023/06/06 04:05:12;;;;;;;7.80;5.47;;;18.60;1.00;;;;;;5051681;28;20427;-74
2023/06/06 04:07:37;;;;;;;7.00;4.90;;;18.60;1.00;;;;;;5050109;28;20424;-72
2023/06/06 04:10:03;;;;;;;6.80;5.30;;;18.60;1.00;;;;;;5028240;28;20181;-74
2023/06/06 04:12:29;;;;;;;6.47;5.10;;;18.60;1.00;;;;;;5051644;28;20674;-74
2023/06/06 04:14:54;;;;;;;5.53;4.50;;;18.70;1.00;;;;;;5043471;28;20434;-74
2023/06/06 04:17:21;;;;;;;6.37;5.10;;;18.70;1.00;;;;;;5051293;28;20217;-74
2023/06/06 04:19:47;;;;;;;7.67;5.20;;;18.70;1.00;;;;;;5051586;28;20188;-73
2023/06/06 04:22:14;;;;;;;11.67;5.40;;;18.60;1.00;;;;;;5051437;28;20767;-74
2023/06/06 04:24:39;;;;;;;6.70;5.03;;;18.60;1.00;;;;;;5051069;28;20432;-73
2023/06/06 04:27:05;;;;;;;6.57;5.13;;;18.60;1.00;;;;;;5051511;28;20458;-74
2023/06/06 04:29:34;;;;;;;7.90;5.00;;;18.70;1.00;;;;;;5051438;28;20508;-71
2023/06/06 04:32:03;;;;;;;6.13;5.03;;;18.80;1.00;;;;;;5051904;28;20919;-74
2023/06/06 04:34:30;;;;;;;5.60;4.53;;;18.80;1.00;;;;;;5051235;28;20435;-74
2023/06/06 04:37:03;;;;;;;7.60;5.00;;;18.90;1.00;;;;;;5051071;28;20451;-74
2023/06/06 04:39:31;;;;;;;6.37;5.30;;;18.90;1.00;;;;;;5051494;28;20430;-74
2023/06/06 04:41:58;;;;;;;7.30;5.37;;;19.00;1.00;;;;;;5024970;28;20833;-74
2023/06/06 04:44:27;;;;;;;9.30;5.77;;;19.00;1.00;;;;;;5051052;28;20439;-74
2023/06/06 04:47:00;;;;;;;7.10;5.10;;;19.10;1.00;;;;;;5050579;28;20412;-74
2023/06/06 04:49:38;;;;;;;7.50;5.20;;;19.10;1.00;;;;;;5051086;28;20427;-74
2023/06/06 04:52:10;;;;;;;6.70;4.50;;;19.10;1.00;;;;;;5043637;28;20948;-74
2023/06/06 04:54:39;;;;;;;6.60;4.80;;;19.10;1.00;;;;;;5050550;28;20481;-72
2023/06/06 04:57:07;;;;;;;7.60;5.20;;;19.10;1.00;;;;;;5044229;28;20981;-73
2023/06/06 04:59:33;;;;;;;7.23;5.40;;;19.20;1.00;;;;;;5050653;28;20439;-73
2023/06/06 05:01:59;;;;;;;7.37;5.13;;;19.20;1.00;;;;;;5050905;28;20415;-74
2023/06/06 05:04:25;;;;;;;7.97;5.53;;;19.30;1.00;;;;;;5050888;28;20439;-74
2023/06/06 05:06:51;;;;;;;7.10;4.87;;;19.30;1.00;;;;;;5050419;28;20428;-73
2023/06/06 05:09:17;;;;;;;8.87;5.17;;;19.40;1.00;;;;;;5050658;28;20771;-74
2023/06/06 05:11:48;;;;;;;6.03;4.87;;;19.40;1.00;;;;;;5050161;28;20535;-73
2023/06/06 05:14:14;;;;;;;6.83;5.00;;;19.40;1.00;;;;;;5050497;28;20481;-74
2023/06/06 05:16:40;;;;;;;7.47;4.80;;;19.50;1.00;;;;;;5050161;28;20467;-73
2023/06/06 05:19:06;;;;;;;7.47;5.03;;;19.90;1.00;;;;;;5050457;28;20238;-74
2023/06/06 05:21:33;;;;;;;7.53;5.07;;;19.90;1.00;;;;;;5050511;28;20427;-74
2023/06/06 05:23:58;;;;;;;9.03;5.17;;;19.70;1.00;;;;;;5049923;28;20188;-75
2023/06/06 05:26:25;;;;;;;6.80;4.90;;;19.80;1.00;;;;;;5050267;28;20430;-74
2023/06/06 05:28:51;;;;;;;7.70;5.13;;;19.80;1.00;;;;;;5050108;28;20200;-73
2023/06/06 05:31:20;;;;;;;7.13;5.03;;;19.80;1.00;;;;;;5050399;28;20524;-74
2023/06/06 05:33:46;;;;;;;5.77;4.70;;;19.90;1.00;;;;;;5050133;28;20212;-73
2023/06/06 05:36:12;;;;;;;7.07;4.83;;;19.90;1.00;;;;;;5050664;28;20466;-74
2023/06/06 05:38:37;;;;;;;5.87;4.70;;;20.00;1.00;;;;;;5049890;28;20276;-73
2023/06/06 05:41:03;;;;;;;7.77;5.13;;;20.00;1.00;;;;;;5050137;28;20172;-73
2023/06/06 05:43:31;;;;;;;6.40;4.90;;;20.10;1.00;;;;;;5049964;28;20283;-74
2023/06/06 05:45:56;;;;;;;9.40;4.60;;;20.10;1.00;;;;;;5050191;28;20172;-74
2023/06/06 05:48:22;;;;;;;9.10;5.37;;;20.20;1.00;;;;;;5050129;28;20427;-74
2023/06/06 05:50:48;;;;;;;5.80;4.90;;;20.30;1.00;;;;;;5050043;28;20246;-74
2023/06/06 05:53:13;;;;;;;6.30;4.87;;;20.40;1.00;;;;;;5052508;28;20212;-74
2023/06/06 05:55:39;;;;;;;6.30;4.60;;;20.50;1.00;;;;;;5053741;28;20180;-72
2023/06/06 05:58:05;;;;;;;7.30;4.80;;;20.60;1.00;;;;;;5047062;28;20238;-74
2023/06/06 06:00:32;;;;;;;5.20;4.30;;;20.60;1.00;;;;;;5053980;28;20184;-74
2023/06/06 06:03:00;;;;;;;6.10;5.00;;;20.60;1.00;;;;;;5053302;28;20191;-73
2023/06/06 06:05:30;;;;;;;6.13;4.70;;;20.60;1.00;;;;;;5053625;28;20505;-74
2023/06/06 06:07:59;;;;;;;6.80;5.40;;;20.60;1.00;;;;;;5052998;28;20463;-73
2023/06/06 06:10:25;;;;;;;6.40;5.10;;;20.60;1.00;;;;;;5053663;28;20426;-74
2023/06/06 06:12:51;;;;;;;9.40;5.20;;;20.50;1.00;;;;;;5053250;28;20459;-73
2023/06/06 06:15:16;;;;;;;7.07;5.10;;;20.60;1.00;;;;;;5053506;28;20430;-74
2023/06/06 06:17:42;;;;;;;7.03;5.37;;;20.60;1.00;;;;;;5046709;28;20217;-73
2023/06/06 06:20:09;;;;;;;7.03;5.10;;;20.50;1.00;;;;;;5053389;28;20237;-74
2023/06/06 06:22:35;;;;;;;7.03;5.27;;;20.60;1.00;;;;;;5052378;28;20734;-74
2023/06/06 06:25:03;;;;;;;10.27;4.57;;;20.60;1.00;;;;;;5052850;28;20435;-73
2023/06/06 06:27:30;;;;;;;7.17;4.97;;;20.70;1.00;;;;;;5053235;28;20838;-74
2023/06/06 06:29:56;;;;;;;6.10;4.60;;;20.80;1.00;;;;;;5052488;28;20454;-74
2023/06/06 06:32:22;;;;;;;7.43;5.00;;;20.90;1.00;;;;;;5035124;28;20293;-74
2023/06/06 06:34:48;;;;;;;5.70;4.93;;;21.00;1.00;;;;;;5052919;28;20928;-73
2023/06/06 06:37:13;;;;;;;8.43;5.40;;;21.10;1.00;;;;;;5052877;28;20287;-73
2023/06/06 06:39:39;;;;;;;6.83;5.33;;;21.20;1.00;;;;;;5034766;28;20270;-72
2023/06/06 06:42:07;;;;;;;6.47;5.13;;;21.40;1.00;;;;;;5052977;28;20570;-74
2023/06/06 06:44:32;;;;;;;6.50;4.63;;;21.50;1.00;;;;;;5052955;28;20176;-74
2023/06/06 06:46:57;;;;;;;8.70;4.80;;;21.50;1.00;;;;;;5052633;28;20435;-74
2023/06/06 06:49:23;;;;;;;6.10;4.97;;;21.60;1.00;;;;;;5052903;28;20215;-74
2023/06/06 06:51:51;;;;;;;6.80;5.00;;;21.70;1.00;;;;;;5052242;28;20191;-73
2023/06/06 06:54:21;;;;;;;6.90;4.67;;;21.70;1.00;;;;;;5052583;28;20559;-74
2023/06/06 06:56:48;;;;;;;5.77;4.97;;;21.90;1.00;;;;;;5052179;28;21075;-73
2023/06/06 06:59:14;;;;;;;7.40;5.03;;;21.90;1.00;;;;;;5052710;28;20430;-74
2023/06/06 07:01:40;;;;;;;8.43;5.37;;;21.90;1.00;;;;;;5052283;28;20415;-74
2023/06/06 07:04:06;;;;;;;5.53;4.50;;;22.00;1.00;;;;;;5051824;28;20291;-73
2023/06/06 07:06:33;;;;;;;6.20;4.90;;;22.10;1.00;;;;;;5052384;28;20563;-74
2023/06/06 07:09:00;;;;;;;8.07;5.50;;;22.20;1.00;;;;;;5052158;28;20184;-74
2023/06/06 07:11:26;;;;;;;8.07;4.90;;;22.40;1.00;;;;;;5052416;28;20431;-74
2023/06/06 07:13:52;;;;;;;8.17;5.13;;;22.40;1.00;;;;;;5052117;28;20447;-74
2023/06/06 07:16:18;;;;;;;6.97;5.60;;;22.50;1.00;;;;;;5052201;28;20469;-74
2023/06/06 07:18:47;;;;;;;7.57;5.47;;;22.60;1.00;;;;;;5052188;28;20267;-75
2023/06/06 07:21:12;;;;;;;7.73;5.20;;;22.80;1.00;;;;;;5052418;28;20431;-74
2023/06/06 07:23:39;;;;;;;8.97;5.30;;;23.00;1.00;;;;;;5052201;28;20454;-74
2023/06/06 07:26:06;;;;;;;6.30;5.10;;;23.10;1.00;;;;;;5051827;28;20191;-74
2023/06/06 07:28:32;;;;;;;7.83;5.80;;;23.00;1.00;;;;;;5052165;28;20948;-74
2023/06/06 07:30:58;;;;;;;7.43;5.20;;;23.00;1.00;;;;;;5051915;28;20908;-74
2023/06/06 07:33:24;;;;;;;8.33;5.50;;;23.10;1.00;;;;;;5051661;28;20479;-74
2023/06/06 07:35:50;;;;;;;11.23;5.77;;;23.10;1.00;;;;;;5051472;28;20245;-74
2023/06/06 07:38:15;;;;;;;6.13;5.30;;;23.40;1.00;;;;;;5051904;28;20547;-74
2023/06/06 07:40:41;;;;;;;14.00;5.90;;;23.60;1.00;;;;;;5052154;28;20192;-74
2023/06/06 07:43:07;;;;;;;6.70;5.40;;;23.60;1.00;;;;;;5051896;28;20443;-74
2023/06/06 07:45:32;;;;;;;6.87;5.30;;;23.70;1.00;;;;;;5051854;28;20593;-74
2023/06/06 07:47:58;;;;;;;7.63;5.10;;;23.80;1.00;;;;;;5051831;28;20847;-74
2023/06/06 07:50:25;;;;;;;6.60;5.13;;;24.10;1.00;;;;;;5033822;28;20185;-74
2023/06/06 07:52:50;;;;;;;12.03;5.77;;;24.40;1.00;;;;;;5051165;28;20212;-74
2023/06/06 07:55:16;;;;;;;7.10;5.10;;;24.50;1.00;;;;;;5051668;28;20438;-75
2023/06/06 07:57:45;;;;;;;7.03;5.50;;;24.60;1.00;;;;;;5051195;28;20203;-74
2023/06/06 08:00:12;;;;;;;7.47;5.87;;;25.10;1.00;;;;;;5044228;28;20417;-74
2023/06/06 08:02:40;;;;;;;6.07;5.20;;;24.80;1.00;;;;;;5051742;28;20439;-74
2023/06/06 08:05:07;;;;;;;7.10;5.30;;;25.00;1.00;;;;;;5051675;28;20415;-74
2023/06/06 08:07:38;;;;;;;9.80;5.53;;;24.80;1.00;;;;;;5051922;28;20427;-74
2023/06/06 08:10:05;;;;;;;7.70;5.47;;;24.90;1.00;;;;;;5051531;28;20849;-74
2023/06/06 08:12:31;;;;;;;7.93;5.50;;;25.00;1.00;;;;;;5051826;28;20451;-74
2023/06/06 08:14:57;;;;;;;5.80;4.80;;;25.50;1.00;;;;;;5051117;28;20938;-74
2023/06/06 08:17:23;;;;;;;6.10;4.83;;;25.30;1.00;;;;;;5050745;28;20235;-74
2023/06/06 08:19:48;;;;;;;6.53;5.10;;;25.20;1.00;;;;;;5051334;28;20180;-74
2023/06/06 08:22:14;;;;;;;8.30;4.60;;;26.00;1.00;;;;;;5051497;28;20643;-74
2023/06/06 08:24:41;;;;;;;6.57;4.27;;;26.00;1.00;;;;;;5048318;28;20176;-74
2023/06/06 08:27:07;;;;;;;7.23;4.50;;;26.30;1.00;;;;;;5051292;28;20454;-74
2023/06/06 08:29:33;;;;;;;7.30;4.30;;;26.50;1.00;;;;;;5051354;28;20427;-74
2023/06/06 08:32:01;;;;;;;6.33;4.90;;;26.80;1.00;;;;;;5051125;28;20454;-75
2023/06/06 08:34:27;;;;;;;6.10;4.17;;;26.90;1.00;;;;;;5051476;28;20595;-74
2023/06/06 08:36:53;;;;;;;5.30;4.13;;;27.10;1.00;;;;;;5050939;28;20210;-74
2023/06/06 08:39:18;;;;;;;6.70;4.40;;;27.40;1.00;;;;;;5051315;28;20180;-74
2023/06/06 08:41:51;;;;;;;5.53;4.53;;;27.70;1.00;;;;;;5051271;28;20553;-75
2023/06/06 08:44:21;;;;;;;8.80;4.40;;;27.50;1.00;;;;;;5044147;28;20799;-75
2023/06/06 08:46:49;;;;;;;6.13;4.73;;;27.40;1.00;;;;;;5050883;28;20184;-74
2023/06/06 08:49:20;;;;;;;6.13;4.53;;;27.40;1.00;;;;;;5051051;28;20208;-74
2023/06/06 08:51:48;;;;;;;7.57;4.53;;;27.50;1.00;;;;;;5050623;28;20555;-73
2023/06/06 08:54:14;;;;;;;7.03;4.33;;;27.30;1.00;;;;;;5050802;28;20208;-75
2023/06/06 08:56:43;;;;;;;6.80;4.37;;;27.80;1.00;;;;;;5043265;28;20208;-74
2023/06/06 08:59:10;;;;;;;8.63;4.73;;;28.40;1.00;;;;;;5050462;28;20211;-75
2023/06/06 09:01:37;;;;;;;6.30;4.90;;;27.90;1.00;;;;;;5050906;28;20176;-74
2023/06/06 09:04:04;;;;;;;7.43;4.93;;;27.70;1.00;;;;;;5050510;28;20694;-74
2023/06/06 09:06:31;;;;;;;6.07;4.70;;;28.70;1.00;;;;;;5050832;28;20227;-75
2023/06/06 09:08:57;;;;;;;6.30;4.87;;;29.80;1.00;;;;;;5050956;28;20223;-75
2023/06/06 09:11:23;;;;;;;7.45;4.90;;;30.70;1.00;;;;;;5050505;28;20200;-75
2023/06/06 09:13:49;;;;;;;7.03;4.70;;;31.90;1.00;;;;;;5050518;28;20250;-74
2023/06/06 09:16:15;;;;;;;6.53;4.70;;;32.80;1.00;;;;;;5032624;28;20200;-75
2023/06/06 09:18:41;;;;;;;7.45;5.00;;;33.50;1.00;;;;;;5050557;28;20212;-76
2023/06/06 09:21:07;;;;;;;6.35;4.85;;;33.80;1.00;;;;;;5050638;28;20177;-75
2023/06/06 09:23:33;;;;;;;5.25;4.70;;;34.60;1.00;;;;;;5032591;28;20239;-75
2023/06/06 09:25:59;;;;;;;6.78;4.80;;;35.20;1.00;;;;;;5049619;28;20640;-76
2023/06/06 09:28:39;;;;;;;8.73;4.88;;;35.20;1.00;;;;;;5050112;28;20164;-75
2023/06/06 09:31:25;;;;;;;5.63;4.65;;;34.70;1.00;;;;;;5050217;28;20678;-75
2023/06/06 09:33:53;;;;;;;6.28;5.13;;;35.00;1.00;;;;;;5050240;28;20196;-75
2023/06/06 09:36:21;;;;;;;7.03;4.95;;;34.90;1.00;;;;;;5050043;28;20200;-76
2023/06/06 09:38:52;;;;;;;6.97;4.60;;;35.30;1.00;;;;;;5050160;28;20192;-74
2023/06/06 09:41:18;;;;;;;6.63;4.68;;;35.80;1.00;;;;;;5050320;28;20260;-75
2023/06/06 09:43:44;;;;;;;6.47;4.18;;;35.90;1.00;;;;;;5050391;28;20606;-76
2023/06/06 09:46:15;;;;;;;5.75;4.38;;;36.00;1.00;;;;;;5032018;28;20697;-76
2023/06/06 09:48:40;;;;;;;6.18;4.57;;;35.70;1.00;;;;;;5050181;28;20177;-76
2023/06/06 09:51:12;;;;;;;5.97;4.45;;;35.10;1.00;;;;;;5049662;28;20184;-75
2023/06/06 09:53:37;;;;;;;9.05;4.70;;;35.60;1.00;;;;;;5050660;28;20212;-75
2023/06/06 09:56:04;;;;;;;9.10;5.10;;;36.60;1.00;;;;;;5049411;28;20254;-76
2023/06/06 09:58:34;;;;;;;8.50;4.70;;;36.90;1.00;;;;;;5050112;28;20230;-76
2023/06/06 10:01:01;;;;;;;9.65;5.70;;;36.50;1.00;;;;;;5049912;28;20180;-76
2023/06/06 10:03:30;;;;;;;7.97;6.07;;;36.10;1.00;;;;;;5049936;28;20571;-76
2023/06/06 10:05:56;;;;;;;12.32;6.40;;;37.00;1.00;;;;;;5049825;28;20176;-75
2023/06/06 10:08:23;;;;;;;6.13;5.30;;;37.80;1.00;;;;;;5031839;28;20195;-75
2023/06/06 10:10:50;;;;;;;7.78;4.47;;;38.20;1.00;;;;;;5049780;28;20176;-74
2023/06/06 10:13:17;;;;;;;8.25;4.63;;;38.30;1.00;;;;;;5050276;28;20201;-76
2023/06/06 10:15:43;;;;;;;9.52;4.50;;;38.60;1.00;;;;;;5032042;28;20184;-76
2023/06/06 10:18:15;;;;;;;6.25;4.30;;;39.00;1.00;;;;;;5049414;28;20181;-76
2023/06/06 10:20:40;;;;;;;6.80;4.70;;;39.20;1.00;;;;;;5050133;28;20635;-76
2023/06/06 10:23:06;;;;;;;7.68;4.72;;;39.70;1.00;;;;;;5049508;28;20211;-76
2023/06/06 10:25:34;;;;;;;10.23;4.97;;;40.40;1.00;;;;;;5049815;28;20185;-76
2023/06/06 10:28:17;;;;;;;5.30;4.72;;;40.20;1.00;;;;;;5049420;28;20189;-76
2023/06/06 10:30:52;;;;;;;6.43;4.82;;;40.60;1.00;;;;;;5048138;28;20187;-76
2023/06/06 10:33:41;;;;;;;7.50;4.85;;;40.60;1.00;;;;;;5024705;28;20231;-76
2023/06/06 10:36:08;;;;;;;7.32;4.50;;;40.00;1.00;;;;;;5049348;28;20208;-75
2023/06/06 10:38:34;;;;;;;5.63;4.97;;;39.10;1.00;;;;;;5049757;28;20582;-75
2023/06/06 10:40:59;;;;;;;7.60;4.78;;;39.90;1.00;;;;;;5052913;28;20554;-76
2023/06/06 10:43:34;;;;;;;6.22;4.72;;;40.70;1.00;;;;;;5053447;28;20185;-76
2023/06/06 10:46:04;;;;;;;6.80;4.95;;;41.40;1.00;;;;;;5035471;28;20550;-76
2023/06/06 10:48:43;;;;;;;6.40;5.20;;;41.70;1.00;;;;;;5053316;28;20184;-76
2023/06/06 10:51:31;;;;;;;6.55;4.63;;;41.90;1.00;;;;;;5053021;28;20180;-76
2023/06/06 10:54:22;;;;;;;5.88;4.60;;;42.30;1.00;;;;;;5052968;28;20582;-75
2023/06/06 10:56:54;;;;;;;7.03;4.60;;;42.70;1.00;;;;;;5052942;28;20213;-74
2023/06/06 10:59:27;;;;;;;5.43;4.25;;;42.40;1.00;;;;;;5035199;28;20284;-76
2023/06/06 11:01:56;;;;;;;6.38;4.68;;;41.10;1.00;;;;;;5052573;28;20263;-74
2023/06/06 11:04:27;;;;;;;8.82;4.70;;;40.70;1.00;;;;;;5035105;28;20192;-76
2023/06/06 11:06:58;;;;;;;7.13;4.80;;;40.80;1.00;;;;;;5052785;28;20550;-76
2023/06/06 11:09:32;;;;;;;6.30;4.85;;;40.70;1.00;;;;;;5053006;28;20188;-76
2023/06/06 11:12:27;;;;;;;10.27;4.70;;;41.20;1.00;;;;;;5052759;28;20253;-75
2023/06/06 11:15:08;;;;;;;6.65;4.80;;;42.00;1.00;;;;;;5050621;28;20246;-75
2023/06/06 11:18:03;;;;;;;7.57;4.68;;;41.00;1.00;;;;;;5052823;28;20207;-76
2023/06/06 11:20:39;;;;;;;7.80;5.07;;;40.60;1.00;;;;;;5052684;28;20180;-76
2023/06/06 11:23:05;;;;;;;7.85;5.28;;;38.90;1.00;;;;;;5051394;28;20199;-76
2023/06/06 11:25:38;;;;;;;5.18;4.35;;;38.60;1.00;;;;;;5052599;28;20618;-75
2023/06/06 11:28:05;;;;;;;5.43;4.47;;;39.60;1.00;;;;;;5052239;28;20249;-75
2023/06/06 11:30:31;;;;;;;5.97;4.60;;;40.30;1.00;;;;;;5035097;28;20212;-76
2023/06/06 11:32:58;;;;;;;5.25;4.70;;;40.00;1.00;;;;;;5052097;28;20200;-76
2023/06/06 11:35:24;;;;;;;5.65;4.70;;;38.80;1.00;;;;;;5052483;28;20183;-76
2023/06/06 11:37:50;;;;;;;7.25;4.85;;;37.70;1.00;;;;;;5051949;28;20220;-75
2023/06/06 11:40:16;;;;;;;6.80;4.50;;;36.60;1.00;;;;;;5034605;28;20575;-76
2023/06/06 11:42:45;;;;;;;6.05;5.03;;;35.70;1.00;;;;;;5052615;28;20279;-75
2023/06/06 11:45:17;;;;;;;6.65;4.68;;;35.20;1.00;;;;;;5052430;28;20573;-75
2023/06/06 11:47:44;;;;;;;8.02;4.57;;;34.60;1.00;;;;;;5051976;28;20172;-74
2023/06/06 11:50:11;;;;;;;7.40;5.18;;;34.00;1.00;;;;;;5034001;28;20177;-74
2023/06/06 11:52:50;;;;;;;6.60;4.45;;;33.50;1.00;;;;;;5051904;28;20586;-75
2023/06/06 11:55:16;;;;;;;6.70;5.10;;;33.10;1.00;;;;;;5052041;28;20173;-76
2023/06/06 11:57:42;;;;;;;9.82;5.55;;;33.00;1.00;;;;;;5051518;28;20212;-75
2023/06/06 12:00:10;;;;;;;7.90;5.05;;;34.30;1.00;;;;;;5051605;28;20601;-75
2023/06/06 12:02:36;;;;;;;8.60;5.10;;;36.30;1.00;;;;;;5051953;28;20234;-76
2023/06/06 12:05:03;;;;;;;5.60;4.70;;;38.10;1.00;;;;;;5051671;28;20659;-76
2023/06/06 12:07:29;;;;;;;11.98;4.90;;;38.60;1.00;;;;;;5051934;28;20181;-75
2023/06/06 12:09:59;;;;;;;5.05;4.28;;;39.40;1.00;;;;;;5051511;28;20251;-76
2023/06/06 12:12:24;;;;;;;5.38;4.70;;;39.70;1.00;;;;;;5051436;28;20203;-75
2023/06/06 12:14:58;;;;;;;5.80;4.50;;;38.80;1.00;;;;;;5051168;28;20311;-74
2023/06/06 12:17:25;;;;;;;7.75;5.00;;;37.80;1.00;;;;;;5051629;28;20291;-76
2023/06/06 12:19:55;;;;;;;4.82;4.20;;;37.60;1.00;;;;;;5051160;28;20184;-74
2023/06/06 12:22:48;;;;;;;9.65;4.43;;;36.60;1.00;;;;;;5051404;28;20255;-75
2023/06/06 12:25:27;;;;;;;10.15;4.25;;;36.40;1.00;;;;;;5030519;28;20181;-76
2023/06/06 12:27:55;;;;;;;5.70;4.00;;;35.90;1.00;;;;;;5051182;28;20173;-74
2023/06/06 12:30:31;;;;;;;5.43;4.22;;;36.20;1.00;;;;;;5051547;28;20180;-76
2023/06/06 12:33:01;;;;;;;6.70;4.32;;;37.50;1.00;;;;;;5051015;28;20275;-75
2023/06/06 12:35:27;;;;;;;5.55;4.25;;;39.10;1.00;;;;;;5051191;28;20215;-76
2023/06/06 12:37:53;;;;;;;5.63;4.30;;;40.10;1.00;;;;;;5045659;28;20239;-75
2023/06/06 12:40:20;;;;;;;7.53;4.20;;;40.30;1.00;;;;;;5051409;28;20176;-76
2023/06/06 12:43:00;;;;;;;5.65;4.40;;;39.10;1.00;;;;;;5051162;28;20697;-76
2023/06/06 12:45:27;;;;;;;6.40;4.13;;;39.10;1.00;;;;;;5044677;28;20188;-76
2023/06/06 12:47:55;;;;;;;8.07;4.40;;;39.60;1.00;;;;;;5050610;28;20667;-75
2023/06/06 12:50:22;;;;;;;5.25;4.13;;;38.80;1.00;;;;;;5051129;28;20245;-76
2023/06/06 12:52:48;;;;;;;5.55;4.43;;;37.60;1.00;;;;;;5050671;28;20208;-75
2023/06/06 12:55:14;;;;;;;5.95;4.55;;;36.90;1.00;;;;;;5050958;28;20268;-75
2023/06/06 12:57:39;;;;;;;9.88;4.57;;;35.90;1.00;;;;;;5050403;28;20734;-75
2023/06/06 13:00:10;;;;;;;6.60;5.03;;;35.50;1.00;;;;;;5050486;28;20184;-76
2023/06/06 13:02:36;;;;;;;6.78;4.30;;;35.60;1.00;;;;;;5050041;28;20192;-75